createdAt,value
2023-05-09T00:02:48.010Z,71.49
2023-05-09T00:07:50.523Z,71.40
2023-05-09T00:12:57.109Z,73.25
2023-05-09T00:17:59.506Z,71.24
2023-05-09T00:23:02.657Z,71.60
2023-05-09T00:28:05.805Z,72.52
2023-05-09T00:33:08.189Z,72.15
2023-05-09T00:38:29.908Z,73.26
2023-05-09T00:43:39.976Z,74.83
2023-05-09T00:48:42.473Z,75.68
2023-05-09T00:53:45.745Z,76.25
2023-05-09T00:59:10.703Z,76.34
2023-05-09T01:04:18.944Z,76.56
2023-05-09T01:10:00.250Z,76.94
2023-05-09T01:15:26.950Z,77.13
2023-05-09T01:20:56.557Z,77.13
2023-05-09T01:26:19.683Z,77.56
2023-05-09T01:31:43.613Z,77.82
2023-05-09T01:36:54.224Z,77.83
2023-05-09T01:42:01.300Z,77.82
2023-05-09T01:47:04.482Z,77.65
2023-05-09T01:52:20.228Z,75.33
2023-05-09T01:57:32.480Z,75.35
2023-05-09T02:02:38.228Z,73.68
2023-05-09T02:07:42.409Z,73.98
2023-05-09T02:12:50.528Z,74.67
2023-05-09T02:18:12.062Z,73.79
2023-05-09T02:23:25.180Z,73.74
2023-05-09T02:28:31.840Z,74.07
2023-05-09T02:33:39.657Z,74.11
2023-05-09T02:38:43.185Z,74.75
2023-05-09T02:43:49.632Z,75.70
2023-05-09T02:48:52.786Z,77.04
2023-05-09T02:54:15.612Z,77.95
2023-05-09T02:59:20.202Z,76.91
2023-05-09T03:04:31.422Z,75.94
2023-05-09T03:09:39.235Z,75.86
2023-05-09T03:14:47.646Z,75.94
2023-05-09T03:19:53.354Z,76.41
2023-05-09T03:24:56.717Z,76.28
2023-05-09T03:30:07.417Z,77.00
2023-05-09T03:35:45.509Z,77.68
2023-05-09T03:41:44.280Z,78.36
2023-05-09T03:47:12.677Z,78.28
2023-05-09T03:52:21.254Z,77.81
2023-05-09T03:57:36.129Z,77.96
2023-05-09T04:02:47.405Z,77.25
2023-05-09T04:08:00.864Z,75.95
2023-05-09T04:13:16.327Z,75.59
2023-05-09T04:18:51.190Z,75.81
2023-05-09T04:23:53.815Z,75.83
2023-05-09T04:29:27.414Z,76.07
2023-05-09T04:34:35.879Z,76.14
2023-05-09T04:39:58.650Z,76.53
2023-05-09T04:45:13.720Z,76.69
2023-05-09T04:50:27.012Z,76.85
2023-05-09T04:55:39.421Z,76.42
2023-05-09T05:00:47.938Z,76.34
2023-05-09T05:05:54.088Z,76.52
2023-05-09T05:11:00.060Z,75.90
2023-05-09T05:16:22.538Z,75.77
2023-05-09T05:21:40.798Z,75.28
2023-05-09T05:26:50.165Z,75.08
2023-05-09T05:32:20.169Z,74.67
2023-05-09T05:37:33.410Z,74.34
2023-05-09T05:42:38.560Z,73.89
2023-05-09T05:48:06.276Z,73.36
2023-05-09T05:53:08.814Z,72.61
2023-05-09T05:58:16.649Z,72.50
2023-05-09T06:03:22.387Z,71.61
2023-05-09T06:08:41.743Z,70.41
2023-05-09T06:13:50.646Z,69.41
2023-05-09T06:19:11.514Z,67.78
2023-05-09T06:24:35.785Z,67.22
2023-05-09T06:30:23.731Z,67.00
2023-05-09T06:35:36.604Z,66.23
2023-05-09T06:40:52.924Z,65.69
2023-05-09T06:46:06.922Z,64.71
2023-05-09T06:51:22.275Z,64.12
2023-05-09T06:56:33.645Z,63.62
2023-05-09T07:01:45.475Z,62.79
2023-05-09T07:06:56.218Z,62.19
2023-05-09T07:12:01.116Z,61.71
2023-05-09T07:17:21.376Z,60.41
2023-05-09T07:22:30.731Z,60.15
2023-05-09T07:27:40.998Z,58.57
2023-05-09T07:32:55.949Z,57.84
2023-05-09T07:38:14.029Z,58.23
2023-05-09T07:43:21.487Z,57.61
2023-05-09T07:48:38.899Z,56.91
2023-05-09T07:53:41.430Z,55.44
2023-05-09T07:58:43.523Z,55.70
2023-05-09T08:03:45.959Z,56.16
2023-05-09T08:08:48.872Z,55.72
2023-05-09T08:13:51.665Z,56.12
2023-05-09T08:19:00.516Z,55.05
2023-05-09T08:24:10.605Z,55.33
2023-05-09T08:29:20.905Z,55.69
2023-05-09T08:34:34.666Z,55.51
2023-05-09T08:39:37.440Z,54.01
2023-05-09T08:44:39.466Z,53.48
2023-05-09T08:49:45.638Z,52.60
2023-05-09T08:54:53.430Z,52.95
2023-05-09T08:59:56.822Z,52.72
2023-05-09T09:04:59.044Z,51.86
2023-05-09T09:10:12.252Z,52.54
2023-05-09T09:15:20.259Z,52.20
2023-05-09T09:20:34.467Z,51.68
2023-05-09T09:25:39.632Z,50.46
2023-05-09T09:30:53.607Z,51.26
2023-05-09T09:35:57.182Z,51.53
2023-05-09T09:40:59.857Z,52.28
2023-05-09T09:46:10.683Z,52.63
2023-05-09T09:51:13.171Z,52.64
2023-05-09T09:56:15.248Z,52.78
2023-05-09T10:01:26.458Z,52.45
2023-05-09T10:06:28.959Z,50.48
2023-05-09T10:11:38.617Z,49.56
2023-05-09T10:16:44.849Z,50.13
2023-05-09T10:21:55.914Z,49.66
2023-05-09T10:27:06.877Z,48.53
2023-05-09T10:32:21.273Z,47.86
2023-05-09T10:37:31.651Z,47.77
2023-05-09T10:42:36.174Z,46.22
2023-05-09T10:47:42.702Z,46.33
2023-05-09T10:53:17.241Z,45.45
2023-05-09T10:58:40.482Z,44.00
2023-05-09T11:03:57.994Z,44.62
2023-05-09T11:09:25.256Z,43.34
2023-05-09T11:14:38.222Z,43.87
2023-05-09T11:19:51.548Z,42.68
2023-05-09T11:25:25.979Z,42.93
2023-05-09T11:30:45.612Z,41.89
2023-05-09T11:35:48.495Z,41.09
2023-05-09T11:40:52.214Z,42.86
2023-05-09T11:45:55.256Z,42.91
2023-05-09T11:51:05.908Z,43.03
2023-05-09T11:56:14.097Z,42.43
2023-05-09T12:01:25.686Z,42.22
2023-05-09T12:06:31.079Z,41.62
2023-05-09T12:11:37.088Z,42.32
2023-05-09T12:16:48.606Z,41.13
2023-05-09T12:21:56.695Z,40.95
2023-05-09T12:27:12.382Z,41.17
2023-05-09T12:32:41.919Z,40.83
2023-05-09T12:38:06.682Z,41.20
2023-05-09T12:43:14.942Z,41.19
2023-05-09T12:48:24.127Z,40.22
2023-05-09T12:53:36.674Z,39.39
2023-05-09T12:59:15.766Z,38.89
2023-05-09T13:04:29.642Z,39.36
2023-05-09T13:09:34.297Z,40.02
2023-05-09T13:14:36.559Z,39.15
2023-05-09T13:19:54.414Z,38.97
2023-05-09T13:25:06.625Z,38.20
2023-05-09T13:30:21.784Z,38.30
2023-05-09T13:35:43.207Z,38.59
2023-05-09T13:40:56.939Z,38.41
2023-05-09T13:46:02.343Z,38.74
2023-05-09T13:51:07.373Z,38.89
2023-05-09T13:56:12.399Z,38.88
2023-05-09T14:01:16.756Z,38.41
2023-05-09T14:06:22.139Z,38.52
2023-05-09T14:11:31.275Z,38.83
2023-05-09T14:16:43.980Z,38.77
2023-05-09T14:21:48.538Z,38.82
2023-05-09T14:27:00.241Z,37.76
2023-05-09T14:32:14.255Z,38.47
2023-05-09T14:37:25.059Z,38.35
2023-05-09T14:42:33.041Z,38.05
2023-05-09T14:47:42.641Z,39.09
2023-05-09T14:52:46.177Z,39.49
2023-05-09T14:57:53.216Z,39.19
2023-05-09T15:03:07.174Z,38.25
2023-05-09T15:08:19.767Z,39.43
2023-05-09T15:13:22.407Z,39.16
2023-05-09T15:18:28.705Z,38.82
2023-05-09T15:23:34.838Z,39.20
2023-05-09T15:28:57.150Z,38.56
2023-05-09T15:34:17.111Z,39.16
2023-05-09T15:39:37.780Z,39.35
2023-05-09T15:44:41.106Z,39.10
2023-05-09T15:49:52.446Z,38.23
2023-05-09T15:54:58.363Z,38.60
2023-05-09T16:00:07.180Z,38.86
2023-05-09T16:05:27.433Z,38.94
2023-05-09T16:10:36.297Z,39.53
2023-05-09T16:15:41.757Z,39.12
2023-05-09T16:20:54.975Z,39.51
2023-05-09T16:26:00.850Z,39.57
2023-05-09T16:31:08.718Z,39.98
2023-05-09T16:36:22.134Z,40.05
2023-05-09T16:41:24.897Z,40.35
2023-05-09T16:46:47.398Z,40.70
2023-05-09T16:52:01.095Z,40.12
2023-05-09T16:57:03.638Z,40.65
2023-05-09T17:02:11.898Z,41.24
2023-05-09T17:07:15.692Z,41.59
2023-05-09T17:12:18.439Z,41.94
2023-05-09T17:17:25.755Z,42.61
2023-05-09T17:22:31.063Z,42.86
2023-05-09T17:27:33.959Z,43.36
2023-05-09T17:32:42.325Z,43.79
2023-05-09T17:37:44.544Z,43.74
2023-05-09T17:42:46.945Z,44.12
2023-05-09T17:47:51.973Z,44.67
2023-05-09T17:53:24.222Z,45.12
2023-05-09T17:58:27.791Z,45.54
2023-05-09T18:03:32.356Z,46.04
2023-05-09T18:08:37.636Z,46.69
2023-05-09T18:13:51.773Z,47.36
2023-05-09T18:19:00.177Z,47.65
2023-05-09T18:24:02.740Z,48.19
2023-05-09T18:29:05.678Z,48.74
2023-05-09T18:34:14.029Z,49.32
2023-05-09T18:39:16.317Z,49.89
2023-05-09T18:44:23.566Z,50.25
2023-05-09T18:49:39.349Z,50.57
2023-05-09T18:54:52.610Z,51.10
2023-05-09T18:59:59.208Z,51.41
2023-05-09T19:05:09.492Z,51.98
2023-05-09T19:10:13.643Z,52.53
2023-05-09T19:15:16.186Z,52.99
2023-05-09T19:20:34.838Z,53.21
2023-05-09T19:25:40.388Z,53.53
2023-05-09T19:30:42.834Z,53.87
2023-05-09T19:35:50.355Z,54.04
2023-05-09T19:41:01.634Z,54.36
2023-05-09T19:46:06.923Z,54.73
2023-05-09T19:51:12.472Z,55.00
2023-05-09T19:56:17.697Z,55.00
2023-05-09T20:01:20.252Z,54.96
2023-05-09T20:06:25.865Z,54.93
2023-05-09T20:11:31.273Z,54.79
2023-05-09T20:16:33.496Z,54.60
2023-05-09T20:21:38.845Z,54.35
2023-05-09T20:26:42.325Z,54.18
2023-05-09T20:31:50.408Z,54.12
2023-05-09T20:37:01.674Z,54.14
2023-05-09T20:42:19.597Z,54.14
2023-05-09T20:47:46.634Z,54.14
2023-05-09T20:52:51.665Z,54.23
2023-05-09T20:57:56.667Z,54.32
2023-05-09T21:03:10.240Z,54.47
2023-05-09T21:08:13.146Z,54.77
2023-05-09T21:13:24.412Z,54.92
2023-05-09T21:18:33.380Z,54.83
2023-05-09T21:23:38.487Z,55.12
2023-05-09T21:28:59.083Z,55.27
2023-05-09T21:34:14.105Z,55.38
2023-05-09T21:39:33.438Z,55.66
2023-05-09T21:44:56.303Z,55.83
2023-05-09T21:50:17.766Z,55.97
2023-05-09T21:55:43.423Z,56.11
2023-05-09T22:00:48.566Z,56.52
2023-05-09T22:06:02.236Z,57.18
2023-05-09T22:11:10.996Z,57.46
2023-05-09T22:16:22.399Z,57.75
2023-05-09T22:21:24.994Z,58.11
2023-05-09T22:26:53.251Z,58.91
2023-05-09T22:32:08.508Z,59.63
2023-05-09T22:37:16.779Z,60.03
2023-05-09T22:42:31.634Z,60.42
2023-05-09T22:47:44.633Z,61.24
2023-05-09T22:53:07.332Z,61.86
2023-05-09T22:58:14.738Z,62.56
2023-05-09T23:03:32.226Z,62.24
2023-05-09T23:08:36.104Z,62.61
2023-05-09T23:13:46.023Z,61.70
2023-05-09T23:18:54.496Z,62.01
2023-05-09T23:24:27.008Z,63.25
2023-05-09T23:29:33.240Z,62.24
2023-05-09T23:34:43.559Z,62.68
2023-05-09T23:39:47.335Z,62.63
2023-05-09T23:45:00.763Z,61.90
2023-05-09T23:50:12.307Z,62.19
2023-05-09T23:55:16.962Z,61.91
